Rollag, Minnesota
Current Conditions -  °F | °C
As of 8:12 AM on Monday 26 Jan 2015 (Local Time) from KJKJ Reporting Station
Clear Clear  
Wind Chill: 25°   Ceiling: Unl
Heat Index: 32°   Visibility: 10mi
Dew Point: 32°   Wind: 8mph
Humidity: 100%   Direction: 290°WNW
Pressure: 29.72"   Gusts: NA
Location:  46.8912°N, 96.2982°W
Report Text: KJKJ 261412Z AUTO 29007KT 10SM CLR 00/00 A2972 RMK AO2
Loading
Personal Weather Stations






























Interactive Weather Map New forecast layout! Learn more

10-Day Weather Forecast

Advertisements
Track Severe Weather on mobile